sensor_id;sensor_type;location;lat;lon;timestamp;temperature;humidity
9730;DHT22;4904;49.152;11.004;2023-05-14T00:01:33;9.80;99.90
9730;DHT22;4904;49.152;11.004;2023-05-14T00:04:00;9.90;99.90
9730;DHT22;4904;49.152;11.004;2023-05-14T00:06:27;9.70;99.90
9730;DHT22;4904;49.152;11.004;2023-05-14T00:08:54;9.90;99.90
9730;DHT22;4904;49.152;11.004;2023-05-14T00:11:21;9.80;99.90
9730;DHT22;4904;49.152;11.004;2023-05-14T00:13:49;9.90;99.90
9730;DHT22;4904;49.152;11.004;2023-05-14T00:16:17;9.90;99.90
9730;DHT22;4904;49.152;11.004;2023-05-14T00:18:44;9.90;99.90
9730;DHT22;4904;49.152;11.004;2023-05-14T00:21:11;9.80;99.90
9730;DHT22;4904;49.152;11.004;2023-05-14T00:23:37;9.60;99.90
9730;DHT22;4904;49.152;11.004;2023-05-14T00:26:04;9.50;99.90
9730;DHT22;4904;49.152;11.004;2023-05-14T00:28:31;9.50;99.90
9730;DHT22;4904;49.152;11.004;2023-05-14T00:30:58;9.50;99.90
9730;DHT22;4904;49.152;11.004;2023-05-14T00:33:26;9.50;99.90
9730;DHT22;4904;49.152;11.004;2023-05-14T00:35:53;9.40;99.90
9730;DHT22;4904;49.152;11.004;2023-05-14T00:38:20;9.40;99.90
9730;DHT22;4904;49.152;11.004;2023-05-14T00:40:48;9.30;99.90
9730;DHT22;4904;49.152;11.004;2023-05-14T00:43:16;9.30;99.90
9730;DHT22;4904;49.152;11.004;2023-05-14T00:45:44;9.30;99.90
9730;DHT22;4904;49.152;11.004;2023-05-14T00:48:11;9.40;99.90
9730;DHT22;4904;49.152;11.004;2023-05-14T00:50:40;9.40;99.90
9730;DHT22;4904;49.152;11.004;2023-05-14T00:53:07;9.50;99.90
9730;DHT22;4904;49.152;11.004;2023-05-14T00:55:35;9.50;99.90
9730;DHT22;4904;49.152;11.004;2023-05-14T00:58:04;9.50;99.90
9730;DHT22;4904;49.152;11.004;2023-05-14T01:00:32;9.70;99.90
9730;DHT22;4904;49.152;11.004;2023-05-14T01:02:59;9.70;99.90
9730;DHT22;4904;49.152;11.004;2023-05-14T01:05:29;9.80;99.90
9730;DHT22;4904;49.152;11.004;2023-05-14T01:08:03;9.80;99.90
9730;DHT22;4904;49.152;11.004;2023-05-14T01:10:41;9.70;99.90
9730;DHT22;4904;49.152;11.004;2023-05-14T01:13:14;9.60;99.90
9730;DHT22;4904;49.152;11.004;2023-05-14T01:15:46;9.50;99.90
9730;DHT22;4904;49.152;11.004;2023-05-14T01:18:16;9.50;99.90
9730;DHT22;4904;49.152;11.004;2023-05-14T01:20:44;9.50;99.90
9730;DHT22;4904;49.152;11.004;2023-05-14T01:23:12;9.50;99.90
9730;DHT22;4904;49.152;11.004;2023-05-14T01:25:39;9.60;99.90
9730;DHT22;4904;49.152;11.004;2023-05-14T01:28:12;9.50;99.90
9730;DHT22;4904;49.152;11.004;2023-05-14T01:30:47;9.60;99.90
9730;DHT22;4904;49.152;11.004;2023-05-14T01:33:16;9.60;99.90
9730;DHT22;4904;49.152;11.004;2023-05-14T01:35:44;9.60;99.90
9730;DHT22;4904;49.152;11.004;2023-05-14T01:38:13;9.60;99.90
9730;DHT22;4904;49.152;11.004;2023-05-14T01:40:43;9.60;99.90
9730;DHT22;4904;49.152;11.004;2023-05-14T01:43:10;9.60;99.90
9730;DHT22;4904;49.152;11.004;2023-05-14T01:45:37;9.70;99.90
9730;DHT22;4904;49.152;11.004;2023-05-14T01:48:04;9.80;99.90
9730;DHT22;4904;49.152;11.004;2023-05-14T01:50:31;9.80;99.90
9730;DHT22;4904;49.152;11.004;2023-05-14T01:52:58;9.80;99.90
9730;DHT22;4904;49.152;11.004;2023-05-14T01:55:26;9.80;99.90
9730;DHT22;4904;49.152;11.004;2023-05-14T01:57:53;9.80;99.90
9730;DHT22;4904;49.152;11.004;2023-05-14T02:00:22;9.70;99.90
9730;DHT22;4904;49.152;11.004;2023-05-14T02:02:49;9.60;99.90
9730;DHT22;4904;49.152;11.004;2023-05-14T02:05:16;9.60;99.90
9730;DHT22;4904;49.152;11.004;2023-05-14T02:07:43;9.70;99.90
9730;DHT22;4904;49.152;11.004;2023-05-14T02:10:10;9.70;99.90
9730;DHT22;4904;49.152;11.004;2023-05-14T02:12:38;9.80;99.90
9730;DHT22;4904;49.152;11.004;2023-05-14T02:15:06;9.90;99.90
9730;DHT22;4904;49.152;11.004;2023-05-14T02:17:35;9.90;99.90
9730;DHT22;4904;49.152;11.004;2023-05-14T02:20:02;9.90;99.90
9730;DHT22;4904;49.152;11.004;2023-05-14T02:22:29;9.90;99.90
9730;DHT22;4904;49.152;11.004;2023-05-14T02:24:56;9.90;99.90
9730;DHT22;4904;49.152;11.004;2023-05-14T02:27:23;9.90;99.90
9730;DHT22;4904;49.152;11.004;2023-05-14T02:29:51;10.00;99.90
9730;DHT22;4904;49.152;11.004;2023-05-14T02:32:18;10.00;99.90
9730;DHT22;4904;49.152;11.004;2023-05-14T02:34:45;10.00;99.90
9730;DHT22;4904;49.152;11.004;2023-05-14T02:37:12;10.10;99.90
9730;DHT22;4904;49.152;11.004;2023-05-14T02:39:39;10.10;99.90
9730;DHT22;4904;49.152;11.004;2023-05-14T02:42:06;10.10;99.90
9730;DHT22;4904;49.152;11.004;2023-05-14T02:44:33;10.10;99.90
9730;DHT22;4904;49.152;11.004;2023-05-14T02:47:01;10.10;99.90
9730;DHT22;4904;49.152;11.004;2023-05-14T02:49:28;10.00;99.90
9730;DHT22;4904;49.152;11.004;2023-05-14T02:51:55;10.10;99.90
9730;DHT22;4904;49.152;11.004;2023-05-14T02:54:22;10.10;99.90
9730;DHT22;4904;49.152;11.004;2023-05-14T02:56:49;10.10;99.90
9730;DHT22;4904;49.152;11.004;2023-05-14T02:59:16;10.00;99.90
9730;DHT22;4904;49.152;11.004;2023-05-14T03:01:42;10.00;99.90
9730;DHT22;4904;49.152;11.004;2023-05-14T03:04:11;10.10;99.90
9730;DHT22;4904;49.152;11.004;2023-05-14T03:06:38;10.00;99.90
9730;DHT22;4904;49.152;11.004;2023-05-14T03:09:04;10.00;99.90
9730;DHT22;4904;49.152;11.004;2023-05-14T03:11:32;9.90;99.90
9730;DHT22;4904;49.152;11.004;2023-05-14T03:13:59;9.90;99.90
9730;DHT22;4904;49.152;11.004;2023-05-14T03:16:25;9.90;99.90
9730;DHT22;4904;49.152;11.004;2023-05-14T03:18:52;9.90;99.90
9730;DHT22;4904;49.152;11.004;2023-05-14T03:21:20;9.90;99.90
9730;DHT22;4904;49.152;11.004;2023-05-14T03:23:47;9.90;99.90
9730;DHT22;4904;49.152;11.004;2023-05-14T03:26:14;9.90;99.90
9730;DHT22;4904;49.152;11.004;2023-05-14T03:28:41;9.90;99.90
9730;DHT22;4904;49.152;11.004;2023-05-14T03:31:08;9.90;99.90
9730;DHT22;4904;49.152;11.004;2023-05-14T03:33:35;9.90;99.90
9730;DHT22;4904;49.152;11.004;2023-05-14T03:36:02;9.90;99.90
9730;DHT22;4904;49.152;11.004;2023-05-14T03:38:30;9.90;99.90
9730;DHT22;4904;49.152;11.004;2023-05-14T03:40:57;9.80;99.90
9730;DHT22;4904;49.152;11.004;2023-05-14T03:43:24;9.90;99.90
9730;DHT22;4904;49.152;11.004;2023-05-14T03:45:50;9.90;99.90
9730;DHT22;4904;49.152;11.004;2023-05-14T03:48:17;9.90;99.90
9730;DHT22;4904;49.152;11.004;2023-05-14T03:50:44;10.00;99.90
9730;DHT22;4904;49.152;11.004;2023-05-14T03:53:11;10.00;99.90
9730;DHT22;4904;49.152;11.004;2023-05-14T03:55:39;10.10;99.90
9730;DHT22;4904;49.152;11.004;2023-05-14T03:58:07;10.10;99.90
9730;DHT22;4904;49.152;11.004;2023-05-14T04:00:38;10.20;99.90
9730;DHT22;4904;49.152;11.004;2023-05-14T04:03:05;10.20;99.90
9730;DHT22;4904;49.152;11.004;2023-05-14T04:05:32;10.20;99.90
9730;DHT22;4904;49.152;11.004;2023-05-14T04:07:59;10.20;99.90
9730;DHT22;4904;49.152;11.004;2023-05-14T04:10:26;10.20;99.90
9730;DHT22;4904;49.152;11.004;2023-05-14T04:12:54;10.20;99.90
9730;DHT22;4904;49.152;11.004;2023-05-14T04:15:21;10.20;99.90
9730;DHT22;4904;49.152;11.004;2023-05-14T04:17:48;10.20;99.90
9730;DHT22;4904;49.152;11.004;2023-05-14T04:20:15;10.20;99.90
9730;DHT22;4904;49.152;11.004;2023-05-14T04:22:43;10.20;99.90
9730;DHT22;4904;49.152;11.004;2023-05-14T04:25:10;10.30;99.90
9730;DHT22;4904;49.152;11.004;2023-05-14T04:27:37;10.20;99.90
9730;DHT22;4904;49.152;11.004;2023-05-14T04:30:07;10.30;99.90
9730;DHT22;4904;49.152;11.004;2023-05-14T04:32:34;10.00;99.90
9730;DHT22;4904;49.152;11.004;2023-05-14T04:35:01;10.00;99.90
9730;DHT22;4904;49.152;11.004;2023-05-14T04:37:28;10.00;99.90
9730;DHT22;4904;49.152;11.004;2023-05-14T04:39:55;10.10;99.90
9730;DHT22;4904;49.152;11.004;2023-05-14T04:42:22;10.20;99.90
9730;DHT22;4904;49.152;11.004;2023-05-14T04:44:50;10.20;99.90
9730;DHT22;4904;49.152;11.004;2023-05-14T04:47:18;10.30;99.90
9730;DHT22;4904;49.152;11.004;2023-05-14T04:49:46;10.30;99.90
9730;DHT22;4904;49.152;11.004;2023-05-14T04:52:12;10.40;99.90
9730;DHT22;4904;49.152;11.004;2023-05-14T04:54:39;10.40;99.90
9730;DHT22;4904;49.152;11.004;2023-05-14T04:57:06;10.50;99.90
9730;DHT22;4904;49.152;11.004;2023-05-14T04:59:33;10.50;99.90
9730;DHT22;4904;49.152;11.004;2023-05-14T05:02:00;10.60;99.90
9730;DHT22;4904;49.152;11.004;2023-05-14T05:04:28;10.50;99.90
9730;DHT22;4904;49.152;11.004;2023-05-14T05:06:55;10.50;99.90
9730;DHT22;4904;49.152;11.004;2023-05-14T05:09:22;10.50;99.90
9730;DHT22;4904;49.152;11.004;2023-05-14T05:11:48;10.60;99.90
9730;DHT22;4904;49.152;11.004;2023-05-14T05:14:15;10.60;99.90
9730;DHT22;4904;49.152;11.004;2023-05-14T05:16:42;10.70;99.90
9730;DHT22;4904;49.152;11.004;2023-05-14T05:19:09;10.80;99.90
9730;DHT22;4904;49.152;11.004;2023-05-14T05:21:37;10.80;99.90
9730;DHT22;4904;49.152;11.004;2023-05-14T05:24:05;10.90;99.90
9730;DHT22;4904;49.152;11.004;2023-05-14T05:26:32;11.00;99.90
9730;DHT22;4904;49.152;11.004;2023-05-14T05:29:01;11.10;99.90
9730;DHT22;4904;49.152;11.004;2023-05-14T05:31:28;11.30;99.90
9730;DHT22;4904;49.152;11.004;2023-05-14T05:33:55;11.20;99.90
9730;DHT22;4904;49.152;11.004;2023-05-14T05:36:22;11.30;99.90
9730;DHT22;4904;49.152;11.004;2023-05-14T05:38:50;11.30;99.90
9730;DHT22;4904;49.152;11.004;2023-05-14T05:41:17;11.40;99.90
9730;DHT22;4904;49.152;11.004;2023-05-14T05:43:44;11.40;99.90
9730;DHT22;4904;49.152;11.004;2023-05-14T05:46:11;11.40;99.90
9730;DHT22;4904;49.152;11.004;2023-05-14T05:48:38;11.30;99.90
9730;DHT22;4904;49.152;11.004;2023-05-14T05:51:04;11.40;99.90
9730;DHT22;4904;49.152;11.004;2023-05-14T05:53:31;11.40;99.90
9730;DHT22;4904;49.152;11.004;2023-05-14T05:55:59;11.50;99.90
9730;DHT22;4904;49.152;11.004;2023-05-14T05:58:26;10.30;99.90
9730;DHT22;4904;49.152;11.004;2023-05-14T06:00:53;11.50;99.90
9730;DHT22;4904;49.152;11.004;2023-05-14T06:03:22;11.60;99.90
9730;DHT22;4904;49.152;11.004;2023-05-14T06:05:49;11.70;99.90
9730;DHT22;4904;49.152;11.004;2023-05-14T06:08:17;11.70;99.90
9730;DHT22;4904;49.152;11.004;2023-05-14T06:10:43;11.80;99.90
9730;DHT22;4904;49.152;11.004;2023-05-14T06:13:12;11.90;99.90
9730;DHT22;4904;49.152;11.004;2023-05-14T06:15:39;11.90;99.90
9730;DHT22;4904;49.152;11.004;2023-05-14T06:18:05;12.00;99.90
9730;DHT22;4904;49.152;11.004;2023-05-14T06:20:33;12.10;99.90
9730;DHT22;4904;49.152;11.004;2023-05-14T06:22:59;12.10;99.90
9730;DHT22;4904;49.152;11.004;2023-05-14T06:25:26;12.10;99.90
9730;DHT22;4904;49.152;11.004;2023-05-14T06:27:53;12.10;99.90
9730;DHT22;4904;49.152;11.004;2023-05-14T06:30:21;12.20;99.90
9730;DHT22;4904;49.152;11.004;2023-05-14T06:32:48;12.20;99.90
9730;DHT22;4904;49.152;11.004;2023-05-14T06:35:16;12.30;99.90
9730;DHT22;4904;49.152;11.004;2023-05-14T06:37:43;12.30;99.90
9730;DHT22;4904;49.152;11.004;2023-05-14T06:40:11;12.30;99.90
9730;DHT22;4904;49.152;11.004;2023-05-14T06:42:40;12.30;99.90
9730;DHT22;4904;49.152;11.004;2023-05-14T06:45:07;12.30;99.90
9730;DHT22;4904;49.152;11.004;2023-05-14T06:47:35;12.40;99.90
9730;DHT22;4904;49.152;11.004;2023-05-14T06:50:02;12.40;99.90
9730;DHT22;4904;49.152;11.004;2023-05-14T06:52:29;12.50;99.90
9730;DHT22;4904;49.152;11.004;2023-05-14T06:54:56;12.60;99.90
9730;DHT22;4904;49.152;11.004;2023-05-14T06:57:23;12.70;99.90
9730;DHT22;4904;49.152;11.004;2023-05-14T06:59:50;12.80;99.90
9730;DHT22;4904;49.152;11.004;2023-05-14T07:02:17;12.90;99.90
9730;DHT22;4904;49.152;11.004;2023-05-14T07:04:45;12.90;99.90
9730;DHT22;4904;49.152;11.004;2023-05-14T07:07:12;12.90;99.90
9730;DHT22;4904;49.152;11.004;2023-05-14T07:09:42;13.10;99.90
9730;DHT22;4904;49.152;11.004;2023-05-14T07:12:08;13.10;99.90
9730;DHT22;4904;49.152;11.004;2023-05-14T07:14:35;13.10;99.90
9730;DHT22;4904;49.152;11.004;2023-05-14T07:17:02;13.20;99.90
9730;DHT22;4904;49.152;11.004;2023-05-14T07:19:29;13.20;99.90
9730;DHT22;4904;49.152;11.004;2023-05-14T07:21:57;13.20;99.90
9730;DHT22;4904;49.152;11.004;2023-05-14T07:24:25;13.40;99.90
9730;DHT22;4904;49.152;11.004;2023-05-14T07:26:52;13.40;99.90
9730;DHT22;4904;49.152;11.004;2023-05-14T07:29:21;13.50;99.90
9730;DHT22;4904;49.152;11.004;2023-05-14T07:31:49;13.60;99.90
9730;DHT22;4904;49.152;11.004;2023-05-14T07:34:16;13.80;99.90
9730;DHT22;4904;49.152;11.004;2023-05-14T07:36:43;13.90;99.90
9730;DHT22;4904;49.152;11.004;2023-05-14T07:39:12;14.10;99.90
9730;DHT22;4904;49.152;11.004;2023-05-14T07:41:38;14.00;99.90
9730;DHT22;4904;49.152;11.004;2023-05-14T07:44:05;14.10;99.90
9730;DHT22;4904;49.152;11.004;2023-05-14T07:46:32;14.20;99.90
9730;DHT22;4904;49.152;11.004;2023-05-14T07:48:59;14.40;99.90
9730;DHT22;4904;49.152;11.004;2023-05-14T07:51:26;14.40;99.90
9730;DHT22;4904;49.152;11.004;2023-05-14T07:53:53;14.30;99.90
9730;DHT22;4904;49.152;11.004;2023-05-14T07:56:21;14.30;99.90
9730;DHT22;4904;49.152;11.004;2023-05-14T07:58:48;14.40;99.90
9730;DHT22;4904;49.152;11.004;2023-05-14T08:01:15;14.40;99.90
9730;DHT22;4904;49.152;11.004;2023-05-14T08:03:42;14.50;99.90
9730;DHT22;4904;49.152;11.004;2023-05-14T08:06:09;14.40;99.90
9730;DHT22;4904;49.152;11.004;2023-05-14T08:08:36;14.50;99.90
9730;DHT22;4904;49.152;11.004;2023-05-14T08:11:03;14.50;99.90
9730;DHT22;4904;49.152;11.004;2023-05-14T08:13:32;14.60;99.90
9730;DHT22;4904;49.152;11.004;2023-05-14T08:15:59;14.60;99.90
9730;DHT22;4904;49.152;11.004;2023-05-14T08:18:26;14.80;99.90
9730;DHT22;4904;49.152;11.004;2023-05-14T08:20:52;14.80;99.90
9730;DHT22;4904;49.152;11.004;2023-05-14T08:23:19;14.80;99.90
9730;DHT22;4904;49.152;11.004;2023-05-14T08:25:47;14.80;99.90
9730;DHT22;4904;49.152;11.004;2023-05-14T08:28:13;14.80;99.90
9730;DHT22;4904;49.152;11.004;2023-05-14T08:30:42;14.30;99.90
9730;DHT22;4904;49.152;11.004;2023-05-14T08:33:08;14.30;99.90
9730;DHT22;4904;49.152;11.004;2023-05-14T08:35:35;14.40;99.90
9730;DHT22;4904;49.152;11.004;2023-05-14T08:38:02;14.60;99.90
9730;DHT22;4904;49.152;11.004;2023-05-14T08:40:29;14.70;99.90
9730;DHT22;4904;49.152;11.004;2023-05-14T08:42:56;14.30;99.90
9730;DHT22;4904;49.152;11.004;2023-05-14T08:45:29;14.40;99.90
9730;DHT22;4904;49.152;11.004;2023-05-14T08:48:00;14.30;99.90
9730;DHT22;4904;49.152;11.004;2023-05-14T08:50:30;14.40;99.90
9730;DHT22;4904;49.152;11.004;2023-05-14T08:52:57;14.30;99.90
9730;DHT22;4904;49.152;11.004;2023-05-14T08:55:25;14.30;99.90
9730;DHT22;4904;49.152;11.004;2023-05-14T08:57:53;14.40;99.90
9730;DHT22;4904;49.152;11.004;2023-05-14T09:00:20;14.60;99.90
9730;DHT22;4904;49.152;11.004;2023-05-14T09:02:47;14.50;99.90
9730;DHT22;4904;49.152;11.004;2023-05-14T09:05:17;14.50;99.90
9730;DHT22;4904;49.152;11.004;2023-05-14T09:07:45;14.60;99.90
9730;DHT22;4904;49.152;11.004;2023-05-14T09:10:12;14.10;99.90
9730;DHT22;4904;49.152;11.004;2023-05-14T09:12:40;14.40;99.90
9730;DHT22;4904;49.152;11.004;2023-05-14T09:15:07;14.60;99.90
9730;DHT22;4904;49.152;11.004;2023-05-14T09:17:34;14.80;99.90
9730;DHT22;4904;49.152;11.004;2023-05-14T09:20:01;15.00;99.90
9730;DHT22;4904;49.152;11.004;2023-05-14T09:22:30;15.10;99.90
9730;DHT22;4904;49.152;11.004;2023-05-14T09:25:04;15.20;99.90
9730;DHT22;4904;49.152;11.004;2023-05-14T09:27:33;15.30;99.90
9730;DHT22;4904;49.152;11.004;2023-05-14T09:30:05;15.40;99.90
9730;DHT22;4904;49.152;11.004;2023-05-14T09:32:36;15.40;99.90
9730;DHT22;4904;49.152;11.004;2023-05-14T09:35:11;15.30;99.90
9730;DHT22;4904;49.152;11.004;2023-05-14T09:37:42;15.20;99.90
9730;DHT22;4904;49.152;11.004;2023-05-14T09:40:18;14.90;99.90
9730;DHT22;4904;49.152;11.004;2023-05-14T09:42:45;15.00;99.90
9730;DHT22;4904;49.152;11.004;2023-05-14T09:45:12;15.20;99.90
9730;DHT22;4904;49.152;11.004;2023-05-14T09:47:39;15.50;99.90
9730;DHT22;4904;49.152;11.004;2023-05-14T09:50:07;15.70;99.90
9730;DHT22;4904;49.152;11.004;2023-05-14T09:52:34;15.90;99.90
9730;DHT22;4904;49.152;11.004;2023-05-14T09:55:01;16.20;99.90
9730;DHT22;4904;49.152;11.004;2023-05-14T09:57:30;16.10;99.90
9730;DHT22;4904;49.152;11.004;2023-05-14T09:59:57;16.20;99.90
9730;DHT22;4904;49.152;11.004;2023-05-14T10:02:25;16.20;99.90
9730;DHT22;4904;49.152;11.004;2023-05-14T10:04:54;16.20;99.90
9730;DHT22;4904;49.152;11.004;2023-05-14T10:07:26;16.40;99.90
9730;DHT22;4904;49.152;11.004;2023-05-14T10:10:00;16.60;99.90
9730;DHT22;4904;49.152;11.004;2023-05-14T10:12:31;16.80;99.90
9730;DHT22;4904;49.152;11.004;2023-05-14T10:15:02;17.00;99.90
9730;DHT22;4904;49.152;11.004;2023-05-14T10:17:31;17.10;99.90
9730;DHT22;4904;49.152;11.004;2023-05-14T10:20:01;17.10;99.90
9730;DHT22;4904;49.152;11.004;2023-05-14T10:22:32;16.80;99.90
9730;DHT22;4904;49.152;11.004;2023-05-14T10:25:01;16.30;99.90
9730;DHT22;4904;49.152;11.004;2023-05-14T10:27:30;16.10;99.90
9730;DHT22;4904;49.152;11.004;2023-05-14T10:29:57;16.10;99.90
9730;DHT22;4904;49.152;11.004;2023-05-14T10:32:24;16.00;99.90
9730;DHT22;4904;49.152;11.004;2023-05-14T10:34:52;16.10;99.90
9730;DHT22;4904;49.152;11.004;2023-05-14T10:37:21;15.90;99.90
9730;DHT22;4904;49.152;11.004;2023-05-14T10:39:49;16.00;99.90
9730;DHT22;4904;49.152;11.004;2023-05-14T10:42:18;16.00;99.90
9730;DHT22;4904;49.152;11.004;2023-05-14T10:44:52;15.90;99.90
9730;DHT22;4904;49.152;11.004;2023-05-14T10:47:20;16.00;99.90
9730;DHT22;4904;49.152;11.004;2023-05-14T10:49:48;16.20;99.90
9730;DHT22;4904;49.152;11.004;2023-05-14T10:52:18;16.30;99.90
9730;DHT22;4904;49.152;11.004;2023-05-14T10:54:48;16.20;99.90
9730;DHT22;4904;49.152;11.004;2023-05-14T10:57:17;16.00;99.90
9730;DHT22;4904;49.152;11.004;2023-05-14T10:59:46;16.00;99.90
9730;DHT22;4904;49.152;11.004;2023-05-14T11:02:25;15.90;99.90
9730;DHT22;4904;49.152;11.004;2023-05-14T11:04:54;15.90;99.90
9730;DHT22;4904;49.152;11.004;2023-05-14T11:07:23;16.00;99.90
9730;DHT22;4904;49.152;11.004;2023-05-14T11:09:55;16.10;99.90
9730;DHT22;4904;49.152;11.004;2023-05-14T11:12:25;16.10;99.90
9730;DHT22;4904;49.152;11.004;2023-05-14T11:14:53;16.20;99.90
9730;DHT22;4904;49.152;11.004;2023-05-14T11:17:20;16.30;99.90
9730;DHT22;4904;49.152;11.004;2023-05-14T11:19:48;16.40;99.90
9730;DHT22;4904;49.152;11.004;2023-05-14T11:22:15;16.40;99.90
9730;DHT22;4904;49.152;11.004;2023-05-14T11:24:42;16.40;99.90
9730;DHT22;4904;49.152;11.004;2023-05-14T11:27:09;16.30;99.90
9730;DHT22;4904;49.152;11.004;2023-05-14T11:29:37;16.40;99.90
9730;DHT22;4904;49.152;11.004;2023-05-14T11:32:04;16.40;99.90
9730;DHT22;4904;49.152;11.004;2023-05-14T11:34:32;16.30;99.90
9730;DHT22;4904;49.152;11.004;2023-05-14T11:37:03;16.40;99.90
9730;DHT22;4904;49.152;11.004;2023-05-14T11:39:30;16.50;99.90
9730;DHT22;4904;49.152;11.004;2023-05-14T11:41:58;16.70;99.90
9730;DHT22;4904;49.152;11.004;2023-05-14T11:44:25;16.80;99.90
9730;DHT22;4904;49.152;11.004;2023-05-14T11:46:55;16.90;99.90
9730;DHT22;4904;49.152;11.004;2023-05-14T11:49:22;17.10;99.90
9730;DHT22;4904;49.152;11.004;2023-05-14T11:51:49;17.00;99.90
9730;DHT22;4904;49.152;11.004;2023-05-14T11:54:18;17.10;99.90
9730;DHT22;4904;49.152;11.004;2023-05-14T11:56:49;17.10;99.90
9730;DHT22;4904;49.152;11.004;2023-05-14T11:59:16;17.20;99.90
9730;DHT22;4904;49.152;11.004;2023-05-14T12:01:44;17.20;99.90
9730;DHT22;4904;49.152;11.004;2023-05-14T12:04:11;17.20;99.90
9730;DHT22;4904;49.152;11.004;2023-05-14T12:06:39;17.10;99.90
9730;DHT22;4904;49.152;11.004;2023-05-14T12:09:06;17.00;99.90
9730;DHT22;4904;49.152;11.004;2023-05-14T12:11:36;17.10;99.90
9730;DHT22;4904;49.152;11.004;2023-05-14T12:14:09;17.30;99.90
9730;DHT22;4904;49.152;11.004;2023-05-14T12:16:39;17.40;99.90
9730;DHT22;4904;49.152;11.004;2023-05-14T12:19:08;17.40;99.90
9730;DHT22;4904;49.152;11.004;2023-05-14T12:21:36;17.60;99.90
9730;DHT22;4904;49.152;11.004;2023-05-14T12:24:04;17.70;99.90
9730;DHT22;4904;49.152;11.004;2023-05-14T12:26:32;17.80;99.90
9730;DHT22;4904;49.152;11.004;2023-05-14T12:29:01;17.90;99.90
9730;DHT22;4904;49.152;11.004;2023-05-14T12:31:29;18.00;99.90
9730;DHT22;4904;49.152;11.004;2023-05-14T12:33:56;18.10;99.90
9730;DHT22;4904;49.152;11.004;2023-05-14T12:36:23;18.10;99.90
9730;DHT22;4904;49.152;11.004;2023-05-14T12:38:55;18.10;99.90
9730;DHT22;4904;49.152;11.004;2023-05-14T12:41:22;18.10;99.90
9730;DHT22;4904;49.152;11.004;2023-05-14T12:43:49;18.20;99.90
9730;DHT22;4904;49.152;11.004;2023-05-14T12:46:17;18.10;99.90
9730;DHT22;4904;49.152;11.004;2023-05-14T12:48:44;17.90;99.90
9730;DHT22;4904;49.152;11.004;2023-05-14T12:51:11;17.70;99.90
9730;DHT22;4904;49.152;11.004;2023-05-14T12:53:38;17.70;99.90
9730;DHT22;4904;49.152;11.004;2023-05-14T12:56:06;17.70;99.90
9730;DHT22;4904;49.152;11.004;2023-05-14T12:58:33;17.30;99.90
9730;DHT22;4904;49.152;11.004;2023-05-14T13:01:00;17.50;99.90
9730;DHT22;4904;49.152;11.004;2023-05-14T13:03:28;17.50;99.90
9730;DHT22;4904;49.152;11.004;2023-05-14T13:05:55;17.50;99.90
9730;DHT22;4904;49.152;11.004;2023-05-14T13:08:22;17.50;99.90
9730;DHT22;4904;49.152;11.004;2023-05-14T13:10:49;17.40;99.90
9730;DHT22;4904;49.152;11.004;2023-05-14T13:13:16;17.20;99.90
9730;DHT22;4904;49.152;11.004;2023-05-14T13:15:43;17.30;99.90
9730;DHT22;4904;49.152;11.004;2023-05-14T13:18:11;17.50;99.90
9730;DHT22;4904;49.152;11.004;2023-05-14T13:20:40;17.60;99.90
9730;DHT22;4904;49.152;11.004;2023-05-14T13:23:07;17.70;99.90
9730;DHT22;4904;49.152;11.004;2023-05-14T13:25:34;17.70;99.90
9730;DHT22;4904;49.152;11.004;2023-05-14T13:28:01;17.90;99.90
9730;DHT22;4904;49.152;11.004;2023-05-14T13:30:29;17.70;99.90
9730;DHT22;4904;49.152;11.004;2023-05-14T13:32:56;17.50;99.90
9730;DHT22;4904;49.152;11.004;2023-05-14T13:35:23;17.50;99.90
9730;DHT22;4904;49.152;11.004;2023-05-14T13:37:51;17.50;99.90
9730;DHT22;4904;49.152;11.004;2023-05-14T13:40:18;17.60;99.90
9730;DHT22;4904;49.152;11.004;2023-05-14T13:42:45;17.70;99.90
9730;DHT22;4904;49.152;11.004;2023-05-14T13:45:12;18.00;99.90
9730;DHT22;4904;49.152;11.004;2023-05-14T13:47:39;18.30;99.90
9730;DHT22;4904;49.152;11.004;2023-05-14T13:50:06;18.30;99.90
9730;DHT22;4904;49.152;11.004;2023-05-14T13:52:33;18.40;99.90
9730;DHT22;4904;49.152;11.004;2023-05-14T13:55:02;18.20;99.90
9730;DHT22;4904;49.152;11.004;2023-05-14T13:57:29;18.30;99.90
9730;DHT22;4904;49.152;11.004;2023-05-14T13:59:55;18.20;99.90
9730;DHT22;4904;49.152;11.004;2023-05-14T14:02:22;18.20;99.90
9730;DHT22;4904;49.152;11.004;2023-05-14T14:04:49;18.00;99.90
9730;DHT22;4904;49.152;11.004;2023-05-14T14:07:16;18.00;99.90
9730;DHT22;4904;49.152;11.004;2023-05-14T14:09:43;18.00;99.90
9730;DHT22;4904;49.152;11.004;2023-05-14T14:12:11;17.70;99.90
9730;DHT22;4904;49.152;11.004;2023-05-14T14:14:38;18.00;99.90
9730;DHT22;4904;49.152;11.004;2023-05-14T14:17:05;18.50;99.90
9730;DHT22;4904;49.152;11.004;2023-05-14T14:19:33;18.70;99.90
9730;DHT22;4904;49.152;11.004;2023-05-14T14:22:00;18.50;99.90
9730;DHT22;4904;49.152;11.004;2023-05-14T14:24:27;18.70;99.90
9730;DHT22;4904;49.152;11.004;2023-05-14T14:26:54;18.90;99.90
9730;DHT22;4904;49.152;11.004;2023-05-14T14:29:22;19.00;99.90
9730;DHT22;4904;49.152;11.004;2023-05-14T14:31:49;19.10;99.90
9730;DHT22;4904;49.152;11.004;2023-05-14T14:34:16;19.20;99.90
9730;DHT22;4904;49.152;11.004;2023-05-14T14:36:43;19.00;99.90
9730;DHT22;4904;49.152;11.004;2023-05-14T14:39:09;19.20;99.90
9730;DHT22;4904;49.152;11.004;2023-05-14T14:41:36;19.30;99.90
9730;DHT22;4904;49.152;11.004;2023-05-14T14:44:03;19.20;99.90
9730;DHT22;4904;49.152;11.004;2023-05-14T14:46:32;19.40;99.90
9730;DHT22;4904;49.152;11.004;2023-05-14T14:48:59;19.70;99.90
9730;DHT22;4904;49.152;11.004;2023-05-14T14:51:26;20.00;99.90
9730;DHT22;4904;49.152;11.004;2023-05-14T14:53:52;20.30;99.90
9730;DHT22;4904;49.152;11.004;2023-05-14T14:56:20;20.50;99.90
9730;DHT22;4904;49.152;11.004;2023-05-14T14:58:46;20.70;99.90
9730;DHT22;4904;49.152;11.004;2023-05-14T15:01:13;20.90;99.90
9730;DHT22;4904;49.152;11.004;2023-05-14T15:03:42;21.20;99.90
9730;DHT22;4904;49.152;11.004;2023-05-14T15:06:10;21.70;99.90
9730;DHT22;4904;49.152;11.004;2023-05-14T15:08:37;22.00;99.90
9730;DHT22;4904;49.152;11.004;2023-05-14T15:11:04;22.90;99.90
9730;DHT22;4904;49.152;11.004;2023-05-14T15:13:32;24.20;99.90
9730;DHT22;4904;49.152;11.004;2023-05-14T15:15:58;24.80;99.90
9730;DHT22;4904;49.152;11.004;2023-05-14T15:18:25;25.60;99.90
9730;DHT22;4904;49.152;11.004;2023-05-14T15:20:54;25.40;99.90
9730;DHT22;4904;49.152;11.004;2023-05-14T15:23:21;24.80;99.90
9730;DHT22;4904;49.152;11.004;2023-05-14T15:25:48;24.00;99.90
9730;DHT22;4904;49.152;11.004;2023-05-14T15:28:15;24.10;99.90
9730;DHT22;4904;49.152;11.004;2023-05-14T15:30:42;24.00;99.90
9730;DHT22;4904;49.152;11.004;2023-05-14T15:33:09;24.00;99.90
9730;DHT22;4904;49.152;11.004;2023-05-14T15:35:36;23.80;99.90
9730;DHT22;4904;49.152;11.004;2023-05-14T15:38:05;23.70;99.90
9730;DHT22;4904;49.152;11.004;2023-05-14T15:40:32;23.40;99.90
9730;DHT22;4904;49.152;11.004;2023-05-14T15:43:00;23.80;99.90
9730;DHT22;4904;49.152;11.004;2023-05-14T15:45:26;23.90;99.90
9730;DHT22;4904;49.152;11.004;2023-05-14T15:47:53;23.70;99.90
9730;DHT22;4904;49.152;11.004;2023-05-14T15:50:20;23.40;99.90
9730;DHT22;4904;49.152;11.004;2023-05-14T15:52:47;23.00;99.90